createdAt,value
2022-10-30T00:02:17.752Z,100.00
2022-10-30T00:04:46.530Z,100.00
2022-10-30T00:07:15.160Z,100.00
2022-10-30T00:09:43.526Z,100.00
2022-10-30T00:12:12.138Z,100.00
2022-10-30T00:14:41.859Z,100.00
2022-10-30T00:17:10.195Z,100.00
2022-10-30T00:19:38.587Z,100.00
2022-10-30T00:24:34.432Z,100.00
2022-10-30T00:27:03.056Z,100.00
2022-10-30T00:29:31.683Z,100.00
2022-10-30T00:32:01.456Z,100.00
2022-10-30T00:34:29.773Z,100.00
2022-10-30T00:36:58.110Z,100.00
2022-10-30T00:39:26.905Z,100.00
2022-10-30T00:41:55.258Z,100.00
2022-10-30T00:44:39.225Z,100.00
2022-10-30T00:47:24.610Z,100.00
2022-10-30T00:50:00.400Z,100.00
2022-10-30T00:52:34.497Z,100.00
2022-10-30T00:55:09.373Z,100.00
2022-10-30T00:57:40.374Z,100.00
2022-10-30T01:00:14.054Z,100.00
2022-10-30T01:02:45.911Z,100.00
2022-10-30T01:05:18.590Z,100.00
2022-10-30T01:07:47.896Z,100.00
2022-10-30T01:10:17.261Z,100.00
2022-10-30T01:12:48.703Z,100.00
2022-10-30T01:15:18.713Z,100.00
2022-10-30T01:18:26.142Z,100.00
2022-10-30T01:21:13.022Z,100.00
2022-10-30T01:23:54.512Z,100.00
2022-10-30T01:26:39.693Z,100.00
2022-10-30T01:29:28.103Z,100.00
2022-10-30T01:32:17.760Z,100.00
2022-10-30T01:34:56.905Z,100.00
2022-10-30T01:37:37.031Z,100.00
2022-10-30T01:40:09.951Z,100.00
2022-10-30T01:42:48.229Z,100.00
2022-10-30T01:45:33.213Z,100.00
2022-10-30T01:48:24.646Z,100.00
2022-10-30T01:51:05.413Z,100.00
2022-10-30T01:53:52.815Z,100.00
2022-10-30T01:56:37.691Z,100.00
2022-10-30T01:59:14.538Z,100.00
2022-10-30T02:01:43.289Z,100.00
2022-10-30T02:04:14.419Z,100.00
2022-10-30T02:06:43.215Z,100.00
2022-10-30T02:09:16.006Z,100.00
2022-10-30T02:11:51.301Z,100.00
2022-10-30T02:14:25.144Z,100.00
2022-10-30T02:16:55.654Z,100.00
2022-10-30T02:19:24.301Z,100.00
2022-10-30T02:21:54.498Z,100.00
2022-10-30T02:24:23.379Z,100.00
2022-10-30T02:26:52.183Z,100.00
2022-10-30T02:29:21.853Z,100.00
2022-10-30T02:31:51.066Z,100.00
2022-10-30T02:34:19.710Z,100.00
2022-10-30T02:36:48.069Z,100.00
2022-10-30T02:39:21.295Z,100.00
2022-10-30T02:41:50.227Z,100.00
2022-10-30T02:44:18.794Z,100.00
2022-10-30T02:46:49.373Z,100.00
2022-10-30T02:49:18.071Z,100.00
2022-10-30T02:51:47.200Z,100.00
2022-10-30T02:54:15.795Z,100.00
2022-10-30T02:56:45.565Z,100.00
2022-10-30T02:59:14.172Z,100.00
2022-10-30T03:01:43.005Z,100.00
2022-10-30T03:04:11.596Z,100.00
2022-10-30T03:06:40.378Z,100.00
2022-10-30T03:09:09.203Z,100.00
2022-10-30T03:11:37.900Z,100.00
2022-10-30T03:14:08.175Z,100.00
2022-10-30T03:16:39.033Z,100.00
2022-10-30T03:19:07.689Z,100.00
2022-10-30T03:21:36.486Z,100.00
2022-10-30T03:24:05.479Z,100.00
2022-10-30T03:26:35.195Z,100.00
2022-10-30T03:29:09.474Z,100.00
2022-10-30T03:31:38.168Z,100.00
2022-10-30T03:34:14.418Z,100.00
2022-10-30T03:36:43.364Z,100.00
2022-10-30T03:39:12.761Z,100.00
2022-10-30T03:41:44.552Z,100.00
2022-10-30T03:44:15.361Z,100.00
2022-10-30T03:46:43.985Z,100.00
2022-10-30T03:49:22.663Z,100.00
2022-10-30T03:51:51.320Z,100.00
2022-10-30T03:54:19.997Z,100.00
2022-10-30T03:56:48.695Z,100.00
2022-10-30T03:59:19.955Z,100.00
2022-10-30T04:02:05.957Z,100.00
2022-10-30T04:04:34.725Z,100.00
2022-10-30T04:07:03.103Z,100.00
2022-10-30T04:09:31.794Z,100.00
2022-10-30T04:12:00.947Z,100.00
2022-10-30T04:14:30.611Z,100.00
2022-10-30T04:16:58.921Z,100.00
2022-10-30T04:19:27.719Z,100.00
2022-10-30T04:21:56.440Z,100.00
2022-10-30T04:24:25.213Z,100.00
2022-10-30T04:26:57.414Z,100.00
2022-10-30T04:29:25.672Z,100.00
2022-10-30T04:31:56.115Z,100.00
2022-10-30T04:34:24.999Z,100.00
2022-10-30T04:36:53.738Z,100.00
2022-10-30T04:39:22.368Z,100.00
2022-10-30T04:41:54.951Z,100.00
2022-10-30T04:44:30.633Z,100.00
2022-10-30T04:47:00.910Z,100.00
2022-10-30T04:49:29.547Z,100.00
2022-10-30T04:51:57.850Z,100.00
2022-10-30T04:54:28.631Z,100.00
2022-10-30T04:56:57.665Z,100.00
2022-10-30T04:59:26.603Z,100.00
2022-10-30T05:01:56.388Z,100.00
2022-10-30T05:04:26.184Z,100.00
2022-10-30T05:06:54.932Z,100.00
2022-10-30T05:09:23.579Z,100.00
2022-10-30T05:11:56.027Z,100.00
2022-10-30T05:14:30.973Z,100.00
2022-10-30T05:17:00.179Z,100.00
2022-10-30T05:19:30.177Z,100.00
2022-10-30T05:21:58.844Z,100.00
2022-10-30T05:24:27.463Z,100.00
2022-10-30T05:26:56.524Z,100.00
2022-10-30T05:29:25.308Z,100.00
2022-10-30T05:31:53.571Z,100.00
2022-10-30T05:34:47.998Z,100.00
2022-10-30T05:37:21.256Z,100.00
2022-10-30T05:39:50.684Z,100.00
2022-10-30T05:42:26.700Z,100.00
2022-10-30T05:45:01.686Z,100.00
2022-10-30T05:47:32.958Z,100.00
2022-10-30T05:50:02.878Z,100.00
2022-10-30T05:52:31.502Z,100.00
2022-10-30T05:55:01.671Z,100.00
2022-10-30T05:57:50.580Z,100.00
2022-10-30T06:00:19.568Z,100.00
2022-10-30T06:02:49.231Z,100.00
2022-10-30T06:05:19.925Z,100.00
2022-10-30T06:07:48.534Z,100.00
2022-10-30T06:10:17.439Z,100.00
2022-10-30T06:13:02.286Z,100.00
2022-10-30T06:15:43.659Z,100.00
2022-10-30T06:18:12.513Z,100.00
2022-10-30T06:20:47.964Z,100.00
2022-10-30T06:23:51.716Z,100.00
2022-10-30T06:26:52.453Z,100.00
2022-10-30T06:29:21.743Z,100.00
2022-10-30T06:31:50.442Z,100.00
2022-10-30T06:34:20.805Z,100.00
2022-10-30T06:36:50.842Z,100.00
2022-10-30T06:39:19.557Z,100.00
2022-10-30T06:42:23.391Z,100.00
2022-10-30T06:45:03.956Z,100.00
2022-10-30T06:47:36.526Z,100.00
2022-10-30T06:50:05.732Z,100.00
2022-10-30T06:52:35.822Z,100.00
2022-10-30T06:55:05.941Z,100.00
2022-10-30T06:57:58.471Z,100.00
2022-10-30T07:00:40.629Z,100.00
2022-10-30T07:03:38.740Z,100.00
2022-10-30T07:06:08.216Z,100.00
2022-10-30T07:08:38.387Z,100.00
2022-10-30T07:11:08.197Z,100.00
2022-10-30T07:13:44.918Z,100.00
2022-10-30T07:16:36.294Z,100.00
2022-10-30T07:19:05.140Z,100.00
2022-10-30T07:21:35.356Z,100.00
2022-10-30T07:24:09.625Z,100.00
2022-10-30T07:27:10.544Z,100.00
2022-10-30T07:29:44.332Z,100.00
2022-10-30T07:32:19.456Z,100.00
2022-10-30T07:35:07.660Z,100.00
2022-10-30T07:37:54.845Z,100.00
2022-10-30T07:40:34.004Z,100.00
2022-10-30T07:43:20.582Z,100.00
2022-10-30T07:46:08.900Z,100.00
2022-10-30T07:48:59.795Z,100.00
2022-10-30T07:51:43.091Z,100.00
2022-10-30T07:54:14.613Z,100.00
2022-10-30T07:56:44.277Z,100.00
2022-10-30T07:59:50.856Z,100.00
2022-10-30T08:02:41.729Z,100.00
2022-10-30T08:05:30.555Z,100.00
2022-10-30T08:08:10.938Z,100.00
2022-10-30T08:10:39.279Z,100.00
2022-10-30T08:13:09.064Z,100.00
2022-10-30T08:15:39.556Z,100.00
2022-10-30T08:18:08.221Z,100.00
2022-10-30T08:20:40.368Z,100.00
2022-10-30T08:23:10.789Z,100.00
2022-10-30T08:25:39.229Z,100.00
2022-10-30T08:28:10.560Z,100.00
2022-10-30T08:30:39.874Z,100.00
2022-10-30T08:33:14.647Z,100.00
2022-10-30T08:36:00.232Z,100.00
2022-10-30T08:38:30.120Z,100.00
2022-10-30T08:41:15.644Z,100.00
2022-10-30T08:43:51.657Z,100.00
2022-10-30T08:46:20.523Z,100.00
2022-10-30T08:48:49.230Z,100.00
2022-10-30T08:51:18.733Z,100.00
2022-10-30T08:53:50.480Z,100.00
2022-10-30T08:56:20.921Z,100.00
2022-10-30T08:59:17.189Z,100.00
2022-10-30T09:01:51.322Z,99.81
2022-10-30T09:04:20.054Z,98.78
2022-10-30T09:07:11.930Z,98.14
2022-10-30T09:10:00.145Z,96.70
2022-10-30T09:12:32.691Z,93.25
2022-10-30T09:15:03.366Z,94.59
2022-10-30T09:17:39.910Z,98.68
2022-10-30T09:20:10.767Z,100.00
2022-10-30T09:22:43.275Z,100.00
2022-10-30T09:25:12.538Z,99.26
2022-10-30T09:28:09.001Z,96.14
2022-10-30T09:30:58.925Z,92.83
2022-10-30T09:33:30.446Z,93.27
2022-10-30T09:36:33.981Z,90.17
2022-10-30T09:39:02.814Z,87.03
2022-10-30T09:41:51.504Z,91.44
2022-10-30T09:44:36.647Z,89.40
2022-10-30T09:47:23.596Z,89.09
2022-10-30T09:50:03.648Z,93.48
2022-10-30T09:52:47.121Z,93.75
2022-10-30T09:55:28.130Z,90.78
2022-10-30T09:58:05.382Z,86.27
2022-10-30T10:00:40.746Z,82.00
2022-10-30T10:03:38.507Z,82.21
2022-10-30T10:06:28.182Z,78.71
2022-10-30T10:09:16.403Z,81.88
2022-10-30T10:12:31.585Z,80.35
2022-10-30T10:15:06.327Z,79.10
2022-10-30T10:17:39.617Z,80.33
2022-10-30T10:20:20.975Z,82.85
2022-10-30T10:22:51.498Z,85.22
2022-10-30T10:25:22.132Z,86.15
2022-10-30T10:28:13.901Z,91.08
2022-10-30T10:30:56.780Z,92.28
2022-10-30T10:33:52.442Z,95.02
2022-10-30T10:36:36.078Z,99.87
2022-10-30T10:39:36.665Z,100.00
2022-10-30T10:42:24.836Z,100.00
2022-10-30T10:45:18.852Z,100.00
2022-10-30T10:48:18.139Z,100.00
2022-10-30T10:50:50.955Z,100.00
2022-10-30T10:53:25.868Z,100.00
2022-10-30T10:55:59.748Z,93.69
2022-10-30T10:58:36.452Z,86.06
2022-10-30T11:01:10.515Z,76.60
2022-10-30T11:03:51.881Z,71.77
2022-10-30T11:06:25.407Z,74.97
2022-10-30T11:09:13.446Z,72.79
2022-10-30T11:11:42.130Z,70.25
2022-10-30T11:14:18.221Z,68.03
2022-10-30T11:17:09.496Z,68.70
2022-10-30T11:19:38.115Z,68.41
2022-10-30T11:22:19.521Z,68.87
2022-10-30T11:24:49.221Z,68.78
2022-10-30T11:27:26.132Z,66.32
2022-10-30T11:29:57.536Z,64.19
2022-10-30T11:32:30.290Z,60.80
2022-10-30T11:35:04.787Z,63.75
2022-10-30T11:37:36.077Z,65.50
2022-10-30T11:40:17.323Z,62.42
2022-10-30T11:42:50.459Z,61.43
2022-10-30T11:45:25.317Z,64.49
2022-10-30T11:47:58.144Z,65.66
2022-10-30T11:50:32.816Z,63.51
2022-10-30T11:53:13.090Z,62.23
2022-10-30T11:55:49.749Z,68.99
2022-10-30T11:58:29.595Z,67.23
2022-10-30T12:01:05.241Z,67.19
2022-10-30T12:03:38.685Z,63.52
2022-10-30T12:06:12.461Z,63.51
2022-10-30T12:08:40.981Z,58.70
2022-10-30T12:11:11.165Z,58.29
2022-10-30T12:13:41.542Z,56.83
2022-10-30T12:16:20.812Z,58.75
2022-10-30T12:19:02.310Z,62.59
2022-10-30T12:21:36.272Z,62.52
2022-10-30T12:24:09.480Z,62.46
2022-10-30T12:26:41.393Z,58.14
2022-10-30T12:29:18.150Z,57.99
2022-10-30T12:31:56.920Z,55.62
2022-10-30T12:34:44.910Z,53.32
2022-10-30T12:37:22.070Z,52.71
2022-10-30T12:40:01.682Z,52.34
2022-10-30T12:42:41.354Z,49.28
2022-10-30T12:45:16.198Z,52.10
2022-10-30T12:47:54.706Z,48.72
2022-10-30T12:50:28.962Z,48.62
2022-10-30T12:53:06.842Z,47.71
2022-10-30T12:55:40.509Z,46.57
2022-10-30T12:58:25.778Z,48.26
2022-10-30T13:01:02.652Z,49.13
2022-10-30T13:03:37.842Z,46.29
2022-10-30T13:06:16.195Z,48.61
2022-10-30T13:08:58.760Z,49.57
2022-10-30T13:11:41.042Z,54.78
2022-10-30T13:14:18.410Z,56.13
2022-10-30T13:16:47.101Z,58.89
2022-10-30T13:19:15.522Z,60.80
2022-10-30T13:21:56.898Z,63.33
2022-10-30T13:24:43.540Z,69.46
2022-10-30T13:27:18.260Z,63.20
2022-10-30T13:30:01.695Z,58.72
2022-10-30T13:32:40.211Z,55.57
2022-10-30T13:35:30.777Z,56.14
2022-10-30T13:38:15.180Z,56.23
2022-10-30T13:40:47.877Z,56.52
2022-10-30T13:43:26.445Z,55.49
2022-10-30T13:46:19.211Z,55.92
2022-10-30T13:48:59.644Z,54.76
2022-10-30T13:51:40.032Z,54.31
2022-10-30T13:54:19.321Z,53.43
2022-10-30T13:56:50.092Z,50.61
2022-10-30T13:59:54.321Z,47.85
2022-10-30T14:02:43.796Z,48.64
2022-10-30T14:05:30.043Z,50.12
2022-10-30T14:08:11.586Z,49.17
2022-10-30T14:10:50.876Z,49.62
2022-10-30T14:13:27.294Z,52.05
2022-10-30T14:15:58.569Z,54.30
2022-10-30T14:18:43.575Z,54.95
2022-10-30T14:21:38.738Z,58.25
2022-10-30T14:24:16.230Z,63.39
2022-10-30T14:26:53.266Z,63.39
2022-10-30T14:29:39.038Z,64.83
2022-10-30T14:32:48.958Z,64.59
2022-10-30T14:35:38.081Z,63.73
2022-10-30T14:38:26.968Z,64.82
2022-10-30T14:41:16.640Z,66.11
2022-10-30T14:43:57.677Z,67.58
2022-10-30T14:46:33.508Z,67.92
2022-10-30T14:49:20.735Z,68.19
2022-10-30T14:52:01.468Z,69.46
2022-10-30T14:54:40.365Z,70.82
2022-10-30T14:57:23.133Z,70.93
2022-10-30T15:00:26.907Z,70.39
2022-10-30T15:03:06.275Z,70.76
2022-10-30T15:05:50.702Z,74.28
2022-10-30T15:08:50.242Z,76.24
2022-10-30T15:11:50.567Z,81.10
2022-10-30T15:14:40.567Z,93.05
2022-10-30T15:17:25.182Z,98.22
2022-10-30T15:19:53.943Z,100.00
2022-10-30T15:22:27.658Z,100.00
2022-10-30T15:24:57.836Z,100.00
2022-10-30T15:27:28.083Z,100.00
2022-10-30T15:30:02.244Z,100.00
2022-10-30T15:32:30.866Z,100.00
2022-10-30T15:35:02.890Z,100.00
2022-10-30T15:37:32.269Z,100.00
2022-10-30T15:40:19.614Z,100.00
2022-10-30T15:42:51.544Z,100.00
2022-10-30T15:45:24.421Z,100.00
2022-10-30T15:48:02.403Z,100.00
2022-10-30T15:50:32.081Z,100.00
2022-10-30T15:53:01.859Z,100.00
2022-10-30T15:55:33.782Z,100.00
2022-10-30T15:58:05.981Z,100.00
2022-10-30T16:00:37.020Z,100.00
2022-10-30T16:03:08.278Z,100.00
2022-10-30T16:05:36.981Z,100.00
2022-10-30T16:08:13.391Z,100.00
2022-10-30T16:10:46.478Z,100.00
2022-10-30T16:13:18.030Z,100.00
2022-10-30T16:15:48.097Z,100.00
2022-10-30T16:18:21.113Z,100.00
2022-10-30T16:20:52.254Z,100.00
2022-10-30T16:23:22.141Z,100.00
2022-10-30T16:25:57.111Z,100.00
2022-10-30T16:28:29.247Z,100.00
2022-10-30T16:31:02.130Z,100.00
2022-10-30T16:33:33.208Z,100.00
2022-10-30T16:36:03.386Z,100.00
2022-10-30T16:38:36.830Z,100.00
2022-10-30T16:41:13.358Z,100.00
2022-10-30T16:43:44.658Z,100.00
2022-10-30T16:46:35.563Z,100.00
2022-10-30T16:49:13.364Z,100.00
2022-10-30T16:51:42.348Z,100.00
2022-10-30T16:54:21.606Z,100.00
2022-10-30T16:56:55.321Z,100.00
2022-10-30T16:59:32.066Z,100.00
2022-10-30T17:02:06.404Z,100.00
2022-10-30T17:04:36.308Z,100.00
2022-10-30T17:07:16.992Z,100.00
2022-10-30T17:09:48.167Z,100.00
2022-10-30T17:12:22.793Z,100.00
2022-10-30T17:14:55.324Z,100.00
2022-10-30T17:17:31.994Z,100.00
2022-10-30T17:20:02.943Z,100.00
2022-10-30T17:22:32.302Z,100.00
2022-10-30T17:25:01.392Z,100.00
2022-10-30T17:27:46.406Z,100.00
2022-10-30T17:30:34.604Z,100.00
2022-10-30T17:33:05.323Z,100.00
2022-10-30T17:35:35.718Z,100.00
2022-10-30T17:38:04.453Z,100.00
2022-10-30T17:40:33.287Z,100.00
2022-10-30T17:43:03.517Z,100.00
2022-10-30T17:45:32.132Z,100.00
2022-10-30T17:48:01.402Z,100.00
2022-10-30T17:50:30.194Z,100.00
2022-10-30T17:52:58.954Z,100.00
2022-10-30T17:55:33.457Z,100.00
2022-10-30T17:58:03.157Z,100.00
2022-10-30T18:00:31.792Z,100.00
2022-10-30T18:03:00.437Z,100.00
2022-10-30T18:05:33.173Z,100.00
2022-10-30T18:08:01.476Z,100.00
2022-10-30T18:10:31.130Z,100.00
2022-10-30T18:13:00.096Z,100.00
2022-10-30T18:15:33.099Z,100.00
2022-10-30T18:18:01.740Z,100.00
2022-10-30T18:20:30.496Z,100.00
2022-10-30T18:22:59.697Z,100.00
2022-10-30T18:25:32.262Z,100.00
2022-10-30T18:28:00.936Z,100.00
2022-10-30T18:30:31.476Z,100.00
2022-10-30T18:33:00.347Z,100.00
2022-10-30T18:35:33.940Z,100.00
2022-10-30T18:38:02.959Z,100.00
2022-10-30T18:40:32.022Z,100.00
2022-10-30T18:43:01.723Z,100.00
2022-10-30T18:45:36.152Z,100.00
2022-10-30T18:48:05.341Z,100.00
2022-10-30T18:50:34.037Z,100.00
2022-10-30T18:53:03.346Z,100.00
2022-10-30T18:55:36.302Z,100.00
2022-10-30T18:58:06.461Z,100.00
2022-10-30T19:00:58.200Z,100.00
2022-10-30T19:03:26.831Z,100.00
2022-10-30T19:05:55.416Z,100.00
2022-10-30T19:08:23.710Z,100.00
2022-10-30T19:10:56.701Z,100.00
2022-10-30T19:13:25.703Z,100.00
2022-10-30T19:16:00.492Z,100.00
2022-10-30T19:18:31.471Z,100.00
2022-10-30T19:21:04.970Z,100.00
2022-10-30T19:23:35.830Z,100.00
2022-10-30T19:26:04.194Z,100.00
2022-10-30T19:28:32.884Z,100.00
2022-10-30T19:31:02.565Z,100.00
2022-10-30T19:33:31.183Z,100.00
2022-10-30T19:36:02.026Z,100.00
2022-10-30T19:38:31.061Z,100.00
2022-10-30T19:40:59.899Z,100.00
2022-10-30T19:43:28.300Z,100.00
2022-10-30T19:45:57.941Z,100.00
2022-10-30T19:51:16.322Z,100.00
2022-10-30T19:53:44.681Z,100.00
2022-10-30T19:56:15.915Z,100.00
2022-10-30T19:58:44.519Z,100.00
2022-10-30T20:01:14.591Z,100.00
2022-10-30T20:03:44.351Z,100.00
2022-10-30T20:06:13.447Z,100.00
2022-10-30T20:08:42.103Z,100.00
2022-10-30T20:11:10.685Z,100.00
2022-10-30T20:13:38.996Z,100.00
2022-10-30T20:16:08.462Z,100.00
2022-10-30T20:18:37.760Z,100.00
2022-10-30T20:21:11.014Z,100.00
2022-10-30T20:23:39.425Z,100.00
2022-10-30T20:26:24.133Z,100.00
2022-10-30T20:28:53.245Z,100.00
2022-10-30T20:31:21.979Z,100.00
2022-10-30T20:33:50.287Z,100.00
2022-10-30T20:36:19.969Z,100.00
2022-10-30T20:38:48.286Z,100.00
2022-10-30T20:41:23.155Z,100.00
2022-10-30T20:43:52.423Z,100.00
2022-10-30T20:46:21.772Z,100.00
2022-10-30T20:48:50.493Z,100.00
2022-10-30T20:51:20.141Z,100.00
2022-10-30T20:53:48.818Z,100.00
2022-10-30T20:56:17.404Z,100.00
2022-10-30T20:58:45.730Z,100.00
2022-10-30T21:01:14.653Z,100.00
2022-10-30T21:03:43.357Z,100.00
2022-10-30T21:06:12.026Z,100.00
2022-10-30T21:08:41.708Z,100.00
2022-10-30T21:11:10.118Z,100.00
2022-10-30T21:13:38.768Z,100.00
2022-10-30T21:16:10.276Z,100.00
2022-10-30T21:18:38.591Z,100.00
2022-10-30T21:21:11.545Z,100.00
2022-10-30T21:23:41.612Z,100.00
2022-10-30T21:26:12.109Z,100.00
2022-10-30T21:28:40.801Z,100.00
2022-10-30T21:31:12.417Z,100.00
2022-10-30T21:33:41.846Z,100.00
2022-10-30T21:36:13.314Z,100.00
2022-10-30T21:38:44.665Z,100.00
2022-10-30T21:41:15.845Z,100.00
2022-10-30T21:43:44.860Z,100.00
2022-10-30T21:46:14.448Z,100.00
2022-10-30T21:48:43.166Z,100.00
2022-10-30T21:51:13.300Z,100.00
2022-10-30T21:53:43.382Z,100.00
2022-10-30T21:56:14.389Z,100.00
2022-10-30T21:58:43.414Z,100.00
2022-10-30T22:01:17.783Z,100.00
2022-10-30T22:03:46.689Z,100.00
2022-10-30T22:06:18.267Z,100.00
2022-10-30T22:08:49.060Z,100.00
2022-10-30T22:11:18.715Z,100.00
2022-10-30T22:13:47.748Z,100.00
2022-10-30T22:16:16.752Z,100.00
2022-10-30T22:18:45.554Z,100.00
2022-10-30T22:21:15.174Z,100.00
2022-10-30T22:23:44.073Z,100.00
2022-10-30T22:26:16.318Z,100.00
2022-10-30T22:28:46.031Z,100.00
2022-10-30T22:31:18.171Z,100.00
2022-10-30T22:33:46.997Z,100.00
2022-10-30T22:36:18.251Z,100.00
2022-10-30T22:38:47.894Z,100.00
2022-10-30T22:41:19.482Z,100.00
2022-10-30T22:43:49.884Z,100.00
2022-10-30T22:46:20.139Z,100.00
2022-10-30T22:48:48.454Z,100.00
2022-10-30T22:51:18.573Z,100.00
2022-10-30T22:53:48.301Z,100.00
2022-10-30T22:56:21.260Z,100.00
2022-10-30T22:58:51.900Z,100.00
2022-10-30T23:01:24.432Z,100.00
2022-10-30T23:03:54.004Z,100.00
2022-10-30T23:06:22.822Z,100.00
2022-10-30T23:08:53.784Z,100.00
2022-10-30T23:11:24.591Z,100.00
2022-10-30T23:13:53.437Z,100.00
2022-10-30T23:16:24.979Z,100.00
2022-10-30T23:18:56.247Z,100.00
2022-10-30T23:21:27.172Z,100.00
2022-10-30T23:23:56.822Z,100.00
2022-10-30T23:26:29.349Z,100.00
2022-10-30T23:28:59.424Z,100.00
2022-10-30T23:31:29.619Z,100.00
2022-10-30T23:34:01.482Z,100.00
2022-10-30T23:36:30.043Z,100.00
2022-10-30T23:39:01.276Z,100.00
2022-10-30T23:41:34.335Z,100.00
2022-10-30T23:44:05.541Z,100.00
2022-10-30T23:46:35.258Z,100.00
2022-10-30T23:49:04.532Z,100.00
2022-10-30T23:51:33.768Z,100.00
2022-10-30T23:54:02.438Z,100.00
2022-10-30T23:56:32.191Z,100.00
2022-10-30T23:59:00.515Z,100.00
